sensor_id;sensor_type;location;lat;lon;timestamp;temperature;humidity
26821;DHT22;37186;51.394;5.454;2024-02-26T00:01:49;9.60;85.00
26821;DHT22;37186;51.394;5.454;2024-02-26T00:04:49;9.60;85.00
26821;DHT22;37186;51.394;5.454;2024-02-26T00:07:50;9.60;85.10
26821;DHT22;37186;51.394;5.454;2024-02-26T00:10:51;9.60;85.10
26821;DHT22;37186;51.394;5.454;2024-02-26T00:13:51;9.60;85.00
26821;DHT22;37186;51.394;5.454;2024-02-26T00:16:52;9.60;85.10
26821;DHT22;37186;51.394;5.454;2024-02-26T00:19:52;9.60;85.10
26821;DHT22;37186;51.394;5.454;2024-02-26T00:22:53;9.60;85.10
26821;DHT22;37186;51.394;5.454;2024-02-26T00:25:54;9.60;85.10
26821;DHT22;37186;51.394;5.454;2024-02-26T00:28:54;9.60;85.10
26821;DHT22;37186;51.394;5.454;2024-02-26T00:31:55;9.60;85.00
26821;DHT22;37186;51.394;5.454;2024-02-26T00:34:55;9.60;85.10
26821;DHT22;37186;51.394;5.454;2024-02-26T00:37:56;9.60;85.10
26821;DHT22;37186;51.394;5.454;2024-02-26T00:40:56;9.60;85.10
26821;DHT22;37186;51.394;5.454;2024-02-26T00:43:57;9.60;85.10
26821;DHT22;37186;51.394;5.454;2024-02-26T00:46:57;9.60;85.00
26821;DHT22;37186;51.394;5.454;2024-02-26T00:49:58;9.60;85.10
26821;DHT22;37186;51.394;5.454;2024-02-26T00:52:58;9.60;85.10
26821;DHT22;37186;51.394;5.454;2024-02-26T00:55:59;9.60;85.00
26821;DHT22;37186;51.394;5.454;2024-02-26T00:58:59;9.60;85.00
26821;DHT22;37186;51.394;5.454;2024-02-26T01:02:00;9.60;85.00
26821;DHT22;37186;51.394;5.454;2024-02-26T01:05:02;9.60;85.00
26821;DHT22;37186;51.394;5.454;2024-02-26T01:08:03;9.60;85.00
26821;DHT22;37186;51.394;5.454;2024-02-26T01:11:04;9.60;85.00
26821;DHT22;37186;51.394;5.454;2024-02-26T01:14:05;9.60;85.00
26821;DHT22;37186;51.394;5.454;2024-02-26T01:17:06;9.50;85.00
26821;DHT22;37186;51.394;5.454;2024-02-26T01:20:07;9.50;85.00
26821;DHT22;37186;51.394;5.454;2024-02-26T01:23:09;9.50;85.10
26821;DHT22;37186;51.394;5.454;2024-02-26T01:26:09;9.60;85.10
26821;DHT22;37186;51.394;5.454;2024-02-26T01:29:10;9.50;85.00
26821;DHT22;37186;51.394;5.454;2024-02-26T01:32:10;9.50;85.00
26821;DHT22;37186;51.394;5.454;2024-02-26T01:35:11;9.50;85.00
26821;DHT22;37186;51.394;5.454;2024-02-26T01:38:12;9.50;85.00
26821;DHT22;37186;51.394;5.454;2024-02-26T01:41:15;9.50;85.20
26821;DHT22;37186;51.394;5.454;2024-02-26T01:44:16;9.50;85.20
26821;DHT22;37186;51.394;5.454;2024-02-26T01:47:17;9.50;85.10
26821;DHT22;37186;51.394;5.454;2024-02-26T01:50:18;9.50;85.20
26821;DHT22;37186;51.394;5.454;2024-02-26T01:53:19;9.50;85.20
26821;DHT22;37186;51.394;5.454;2024-02-26T01:56:21;9.50;85.10
26821;DHT22;37186;51.394;5.454;2024-02-26T01:59:22;9.50;85.20
26821;DHT22;37186;51.394;5.454;2024-02-26T02:02:23;9.40;85.10
26821;DHT22;37186;51.394;5.454;2024-02-26T02:05:24;9.50;85.20
26821;DHT22;37186;51.394;5.454;2024-02-26T02:08:27;9.40;85.20
26821;DHT22;37186;51.394;5.454;2024-02-26T02:11:27;9.40;85.20
26821;DHT22;37186;51.394;5.454;2024-02-26T02:14:28;9.40;85.20
26821;DHT22;37186;51.394;5.454;2024-02-26T02:17:30;9.40;85.20
26821;DHT22;37186;51.394;5.454;2024-02-26T02:20:34;9.40;85.30
26821;DHT22;37186;51.394;5.454;2024-02-26T02:23:35;9.40;85.30
26821;DHT22;37186;51.394;5.454;2024-02-26T02:26:36;9.40;85.20
26821;DHT22;37186;51.394;5.454;2024-02-26T02:29:37;9.30;85.30
26821;DHT22;37186;51.394;5.454;2024-02-26T02:32:40;9.30;85.20
26821;DHT22;37186;51.394;5.454;2024-02-26T02:35:41;9.30;85.30
26821;DHT22;37186;51.394;5.454;2024-02-26T02:38:49;9.30;85.30
26821;DHT22;37186;51.394;5.454;2024-02-26T02:41:53;9.30;85.30
26821;DHT22;37186;51.394;5.454;2024-02-26T02:44:53;9.30;85.20
26821;DHT22;37186;51.394;5.454;2024-02-26T02:47:54;9.30;85.30
26821;DHT22;37186;51.394;5.454;2024-02-26T02:50:55;9.30;85.40
26821;DHT22;37186;51.394;5.454;2024-02-26T02:53:56;9.30;85.30
26821;DHT22;37186;51.394;5.454;2024-02-26T02:56:56;9.30;85.30
26821;DHT22;37186;51.394;5.454;2024-02-26T02:59:57;9.20;85.40
26821;DHT22;37186;51.394;5.454;2024-02-26T03:02:57;9.20;85.30
26821;DHT22;37186;51.394;5.454;2024-02-26T03:05:58;9.20;85.40
26821;DHT22;37186;51.394;5.454;2024-02-26T03:08:58;9.20;85.40
26821;DHT22;37186;51.394;5.454;2024-02-26T03:11:59;9.20;85.40
26821;DHT22;37186;51.394;5.454;2024-02-26T03:14:59;9.20;85.40
26821;DHT22;37186;51.394;5.454;2024-02-26T03:18:02;9.20;85.40
26821;DHT22;37186;51.394;5.454;2024-02-26T03:21:03;9.20;85.40
26821;DHT22;37186;51.394;5.454;2024-02-26T03:24:04;9.20;85.40
26821;DHT22;37186;51.394;5.454;2024-02-26T03:27:05;9.10;85.40
26821;DHT22;37186;51.394;5.454;2024-02-26T03:30:10;9.20;85.50
26821;DHT22;37186;51.394;5.454;2024-02-26T03:33:10;9.10;85.40
26821;DHT22;37186;51.394;5.454;2024-02-26T03:36:11;9.10;85.40
26821;DHT22;37186;51.394;5.454;2024-02-26T03:39:11;9.10;85.50
26821;DHT22;37186;51.394;5.454;2024-02-26T03:42:12;9.10;85.50
26821;DHT22;37186;51.394;5.454;2024-02-26T03:45:13;9.10;85.50
26821;DHT22;37186;51.394;5.454;2024-02-26T03:48:13;9.10;85.50
26821;DHT22;37186;51.394;5.454;2024-02-26T03:51:14;9.10;85.60
26821;DHT22;37186;51.394;5.454;2024-02-26T03:54:14;9.10;85.50
26821;DHT22;37186;51.394;5.454;2024-02-26T03:57:15;9.10;85.50
26821;DHT22;37186;51.394;5.454;2024-02-26T04:00:16;9.10;85.60
26821;DHT22;37186;51.394;5.454;2024-02-26T04:03:16;9.00;85.60
26821;DHT22;37186;51.394;5.454;2024-02-26T04:06:17;9.00;85.50
26821;DHT22;37186;51.394;5.454;2024-02-26T04:09:21;9.00;85.50
26821;DHT22;37186;51.394;5.454;2024-02-26T04:12:21;9.00;85.80
26821;DHT22;37186;51.394;5.454;2024-02-26T04:15:22;9.00;85.60
26821;DHT22;37186;51.394;5.454;2024-02-26T04:18:22;9.00;85.70
26821;DHT22;37186;51.394;5.454;2024-02-26T04:21:23;9.00;85.80
26821;DHT22;37186;51.394;5.454;2024-02-26T04:24:23;9.00;85.60
26821;DHT22;37186;51.394;5.454;2024-02-26T04:27:24;9.00;85.60
26821;DHT22;37186;51.394;5.454;2024-02-26T04:30:24;8.90;85.70
26821;DHT22;37186;51.394;5.454;2024-02-26T04:33:25;9.00;85.90
26821;DHT22;37186;51.394;5.454;2024-02-26T04:36:26;9.00;85.70
26821;DHT22;37186;51.394;5.454;2024-02-26T04:39:26;8.90;85.80
26821;DHT22;37186;51.394;5.454;2024-02-26T04:42:27;8.90;85.70
26821;DHT22;37186;51.394;5.454;2024-02-26T04:45:27;8.90;86.60
26821;DHT22;37186;51.394;5.454;2024-02-26T04:48:28;8.90;85.70
26821;DHT22;37186;51.394;5.454;2024-02-26T04:51:28;8.90;85.80
26821;DHT22;37186;51.394;5.454;2024-02-26T04:54:29;8.90;85.80
26821;DHT22;37186;51.394;5.454;2024-02-26T04:57:29;8.90;85.90
26821;DHT22;37186;51.394;5.454;2024-02-26T05:00:30;8.90;85.80
26821;DHT22;37186;51.394;5.454;2024-02-26T05:03:31;8.90;86.00
26821;DHT22;37186;51.394;5.454;2024-02-26T05:06:31;8.90;85.80
26821;DHT22;37186;51.394;5.454;2024-02-26T05:09:32;8.80;86.00
26821;DHT22;37186;51.394;5.454;2024-02-26T05:12:32;8.80;85.70
26821;DHT22;37186;51.394;5.454;2024-02-26T05:15:36;8.80;85.90
26821;DHT22;37186;51.394;5.454;2024-02-26T05:18:36;8.80;85.90
26821;DHT22;37186;51.394;5.454;2024-02-26T05:21:37;8.80;85.90
26821;DHT22;37186;51.394;5.454;2024-02-26T05:24:38;8.80;85.80
26821;DHT22;37186;51.394;5.454;2024-02-26T05:27:39;8.80;85.90
26821;DHT22;37186;51.394;5.454;2024-02-26T05:30:39;8.70;85.80
26821;DHT22;37186;51.394;5.454;2024-02-26T05:33:40;8.80;86.00
26821;DHT22;37186;51.394;5.454;2024-02-26T05:36:40;8.70;86.00
26821;DHT22;37186;51.394;5.454;2024-02-26T05:39:41;8.70;85.80
26821;DHT22;37186;51.394;5.454;2024-02-26T05:42:42;8.70;86.00
26821;DHT22;37186;51.394;5.454;2024-02-26T05:45:45;8.70;86.00
26821;DHT22;37186;51.394;5.454;2024-02-26T05:48:51;8.70;86.00
26821;DHT22;37186;51.394;5.454;2024-02-26T05:51:52;8.60;86.00
26821;DHT22;37186;51.394;5.454;2024-02-26T05:54:52;8.70;86.20
26821;DHT22;37186;51.394;5.454;2024-02-26T05:57:53;8.60;86.00
26821;DHT22;37186;51.394;5.454;2024-02-26T06:00:54;8.60;86.00
26821;DHT22;37186;51.394;5.454;2024-02-26T06:03:55;8.60;86.00
26821;DHT22;37186;51.394;5.454;2024-02-26T06:06:55;8.60;86.00
26821;DHT22;37186;51.394;5.454;2024-02-26T06:09:56;8.60;86.20
26821;DHT22;37186;51.394;5.454;2024-02-26T06:12:56;8.60;86.00
26821;DHT22;37186;51.394;5.454;2024-02-26T06:15:57;8.60;86.00
26821;DHT22;37186;51.394;5.454;2024-02-26T06:18:57;8.60;86.10
26821;DHT22;37186;51.394;5.454;2024-02-26T06:21:58;8.70;86.20
26821;DHT22;37186;51.394;5.454;2024-02-26T06:24:59;8.60;86.20
26821;DHT22;37186;51.394;5.454;2024-02-26T06:27:59;8.60;86.10
26821;DHT22;37186;51.394;5.454;2024-02-26T06:31:00;8.60;86.20
26821;DHT22;37186;51.394;5.454;2024-02-26T06:34:00;8.60;86.20
26821;DHT22;37186;51.394;5.454;2024-02-26T06:37:01;8.60;86.40
26821;DHT22;37186;51.394;5.454;2024-02-26T06:40:02;8.60;86.20
26821;DHT22;37186;51.394;5.454;2024-02-26T06:43:04;8.60;86.20
26821;DHT22;37186;51.394;5.454;2024-02-26T06:46:06;8.60;86.30
26821;DHT22;37186;51.394;5.454;2024-02-26T06:49:07;8.60;86.40
26821;DHT22;37186;51.394;5.454;2024-02-26T06:52:08;8.60;86.20
26821;DHT22;37186;51.394;5.454;2024-02-26T06:55:08;8.60;86.50
26821;DHT22;37186;51.394;5.454;2024-02-26T06:58:09;8.60;86.20
26821;DHT22;37186;51.394;5.454;2024-02-26T07:01:11;8.60;86.40
26821;DHT22;37186;51.394;5.454;2024-02-26T07:04:12;8.60;86.50
26821;DHT22;37186;51.394;5.454;2024-02-26T07:07:13;8.60;86.20
26821;DHT22;37186;51.394;5.454;2024-02-26T07:10:13;8.50;86.40
26821;DHT22;37186;51.394;5.454;2024-02-26T07:13:14;8.50;87.30
26821;DHT22;37186;51.394;5.454;2024-02-26T07:16:15;8.60;86.40
26821;DHT22;37186;51.394;5.454;2024-02-26T07:19:16;8.50;86.50
26821;DHT22;37186;51.394;5.454;2024-02-26T07:22:16;8.50;86.40
26821;DHT22;37186;51.394;5.454;2024-02-26T07:25:17;8.50;86.40
26821;DHT22;37186;51.394;5.454;2024-02-26T07:28:17;8.50;86.80
26821;DHT22;37186;51.394;5.454;2024-02-26T07:31:18;8.50;86.40
26821;DHT22;37186;51.394;5.454;2024-02-26T07:34:19;8.50;86.50
26821;DHT22;37186;51.394;5.454;2024-02-26T07:37:19;8.50;86.60
26821;DHT22;37186;51.394;5.454;2024-02-26T07:40:20;8.50;86.50
26821;DHT22;37186;51.394;5.454;2024-02-26T07:43:20;8.50;86.50
26821;DHT22;37186;51.394;5.454;2024-02-26T07:46:21;8.50;86.40
26821;DHT22;37186;51.394;5.454;2024-02-26T07:49:21;8.50;86.50
26821;DHT22;37186;51.394;5.454;2024-02-26T07:52:22;8.50;86.50
26821;DHT22;37186;51.394;5.454;2024-02-26T07:55:23;8.50;87.30
26821;DHT22;37186;51.394;5.454;2024-02-26T07:58:24;8.50;86.50
26821;DHT22;37186;51.394;5.454;2024-02-26T08:01:24;8.50;86.60
26821;DHT22;37186;51.394;5.454;2024-02-26T08:04:26;8.40;86.40
26821;DHT22;37186;51.394;5.454;2024-02-26T08:07:27;8.40;86.40
26821;DHT22;37186;51.394;5.454;2024-02-26T08:10:28;8.50;86.60
26821;DHT22;37186;51.394;5.454;2024-02-26T08:13:29;8.50;86.60
26821;DHT22;37186;51.394;5.454;2024-02-26T08:16:30;8.50;86.60
26821;DHT22;37186;51.394;5.454;2024-02-26T08:19:30;8.50;86.70
26821;DHT22;37186;51.394;5.454;2024-02-26T08:22:31;8.40;86.90
26821;DHT22;37186;51.394;5.454;2024-02-26T08:25:32;8.40;86.80
26821;DHT22;37186;51.394;5.454;2024-02-26T08:28:32;8.40;86.80
26821;DHT22;37186;51.394;5.454;2024-02-26T08:31:33;8.40;86.60
26821;DHT22;37186;51.394;5.454;2024-02-26T08:34:33;8.40;86.80
26821;DHT22;37186;51.394;5.454;2024-02-26T08:37:34;8.40;86.90
26821;DHT22;37186;51.394;5.454;2024-02-26T08:40:34;8.40;86.60
26821;DHT22;37186;51.394;5.454;2024-02-26T08:43:35;8.40;86.60
26821;DHT22;37186;51.394;5.454;2024-02-26T08:46:38;8.40;86.90
26821;DHT22;37186;51.394;5.454;2024-02-26T08:49:44;8.40;86.80
26821;DHT22;37186;51.394;5.454;2024-02-26T08:52:44;8.40;86.80
26821;DHT22;37186;51.394;5.454;2024-02-26T08:55:49;8.40;86.90
26821;DHT22;37186;51.394;5.454;2024-02-26T08:58:49;8.40;86.70
26821;DHT22;37186;51.394;5.454;2024-02-26T09:01:53;8.40;87.20
26821;DHT22;37186;51.394;5.454;2024-02-26T09:04:54;8.40;86.80
26821;DHT22;37186;51.394;5.454;2024-02-26T09:07:55;8.40;86.90
26821;DHT22;37186;51.394;5.454;2024-02-26T09:10:56;8.40;86.90
26821;DHT22;37186;51.394;5.454;2024-02-26T09:13:56;8.40;87.00
26821;DHT22;37186;51.394;5.454;2024-02-26T09:17:04;8.40;87.00
26821;DHT22;37186;51.394;5.454;2024-02-26T09:20:06;8.40;87.10
26821;DHT22;37186;51.394;5.454;2024-02-26T09:23:09;8.40;86.80
26821;DHT22;37186;51.394;5.454;2024-02-26T09:26:10;8.40;87.10
26821;DHT22;37186;51.394;5.454;2024-02-26T09:29:10;8.40;87.10
26821;DHT22;37186;51.394;5.454;2024-02-26T09:32:11;8.40;86.90
26821;DHT22;37186;51.394;5.454;2024-02-26T09:35:11;8.40;87.20
26821;DHT22;37186;51.394;5.454;2024-02-26T09:38:13;8.40;87.00
26821;DHT22;37186;51.394;5.454;2024-02-26T09:41:14;8.40;87.10
26821;DHT22;37186;51.394;5.454;2024-02-26T09:44:19;8.40;86.90
26821;DHT22;37186;51.394;5.454;2024-02-26T09:47:23;8.40;87.10
26821;DHT22;37186;51.394;5.454;2024-02-26T09:50:24;8.40;87.00
26821;DHT22;37186;51.394;5.454;2024-02-26T09:53:24;8.40;87.30
26821;DHT22;37186;51.394;5.454;2024-02-26T09:56:25;8.30;87.10
26821;DHT22;37186;51.394;5.454;2024-02-26T09:59:26;8.40;87.10
26821;DHT22;37186;51.394;5.454;2024-02-26T10:02:28;8.30;87.20
26821;DHT22;37186;51.394;5.454;2024-02-26T10:05:29;8.40;87.10
26821;DHT22;37186;51.394;5.454;2024-02-26T10:08:30;8.40;87.10
26821;DHT22;37186;51.394;5.454;2024-02-26T10:11:31;8.40;87.10
26821;DHT22;37186;51.394;5.454;2024-02-26T10:14:32;8.40;87.10
26821;DHT22;37186;51.394;5.454;2024-02-26T10:17:33;8.40;87.10
26821;DHT22;37186;51.394;5.454;2024-02-26T10:20:34;8.40;87.10
26821;DHT22;37186;51.394;5.454;2024-02-26T10:23:35;8.40;87.10
26821;DHT22;37186;51.394;5.454;2024-02-26T10:26:35;8.40;87.20
26821;DHT22;37186;51.394;5.454;2024-02-26T10:29:36;8.40;87.40
26821;DHT22;37186;51.394;5.454;2024-02-26T10:32:38;8.40;87.20
26821;DHT22;37186;51.394;5.454;2024-02-26T10:35:39;8.40;87.40
26821;DHT22;37186;51.394;5.454;2024-02-26T10:38:41;8.40;87.40
26821;DHT22;37186;51.394;5.454;2024-02-26T10:41:44;8.40;87.20
26821;DHT22;37186;51.394;5.454;2024-02-26T10:44:45;8.40;87.30
26821;DHT22;37186;51.394;5.454;2024-02-26T10:47:46;8.40;87.60
26821;DHT22;37186;51.394;5.454;2024-02-26T10:50:47;8.40;87.30
26821;DHT22;37186;51.394;5.454;2024-02-26T10:53:50;8.40;88.10
26821;DHT22;37186;51.394;5.454;2024-02-26T10:56:53;8.40;87.40
26821;DHT22;37186;51.394;5.454;2024-02-26T10:59:56;8.40;87.40
26821;DHT22;37186;51.394;5.454;2024-02-26T11:02:57;8.40;87.40
26821;DHT22;37186;51.394;5.454;2024-02-26T11:06:01;8.40;87.40
26821;DHT22;37186;51.394;5.454;2024-02-26T11:09:04;8.40;87.70
26821;DHT22;37186;51.394;5.454;2024-02-26T11:12:08;8.40;87.40
26821;DHT22;37186;51.394;5.454;2024-02-26T11:15:11;8.40;87.40
26821;DHT22;37186;51.394;5.454;2024-02-26T11:18:13;8.40;87.60
26821;DHT22;37186;51.394;5.454;2024-02-26T11:21:18;8.40;87.70
26821;DHT22;37186;51.394;5.454;2024-02-26T11:24:19;8.40;87.60
26821;DHT22;37186;51.394;5.454;2024-02-26T11:27:25;8.40;87.70
26821;DHT22;37186;51.394;5.454;2024-02-26T11:30:30;8.40;87.60
26821;DHT22;37186;51.394;5.454;2024-02-26T11:33:31;8.40;87.80
26821;DHT22;37186;51.394;5.454;2024-02-26T11:36:32;8.40;87.40
26821;DHT22;37186;51.394;5.454;2024-02-26T11:39:33;8.40;87.30
26821;DHT22;37186;51.394;5.454;2024-02-26T11:42:43;8.40;87.40
26821;DHT22;37186;51.394;5.454;2024-02-26T11:45:54;8.40;87.50
26821;DHT22;37186;51.394;5.454;2024-02-26T11:49:02;8.40;87.60
26821;DHT22;37186;51.394;5.454;2024-02-26T11:52:06;8.40;87.60
26821;DHT22;37186;51.394;5.454;2024-02-26T11:55:07;8.40;87.60
26821;DHT22;37186;51.394;5.454;2024-02-26T11:58:09;8.40;87.40
26821;DHT22;37186;51.394;5.454;2024-02-26T12:02:02;8.40;87.40
26821;DHT22;37186;51.394;5.454;2024-02-26T12:04:57;8.40;87.70
26821;DHT22;37186;51.394;5.454;2024-02-26T12:08:06;8.40;87.50
26821;DHT22;37186;51.394;5.454;2024-02-26T12:11:14;8.40;87.60
26821;DHT22;37186;51.394;5.454;2024-02-26T12:14:18;8.40;87.60
26821;DHT22;37186;51.394;5.454;2024-02-26T12:17:23;8.40;87.70
26821;DHT22;37186;51.394;5.454;2024-02-26T12:20:24;8.40;87.70
26821;DHT22;37186;51.394;5.454;2024-02-26T12:23:24;8.40;87.60
26821;DHT22;37186;51.394;5.454;2024-02-26T12:26:25;8.40;88.60
26821;DHT22;37186;51.394;5.454;2024-02-26T12:29:26;8.40;87.70
26821;DHT22;37186;51.394;5.454;2024-02-26T12:32:29;8.40;88.10
26821;DHT22;37186;51.394;5.454;2024-02-26T12:35:31;8.40;87.70
26821;DHT22;37186;51.394;5.454;2024-02-26T12:38:32;8.40;87.70
26821;DHT22;37186;51.394;5.454;2024-02-26T12:41:33;8.40;87.80
26821;DHT22;37186;51.394;5.454;2024-02-26T12:44:34;8.50;87.90
26821;DHT22;37186;51.394;5.454;2024-02-26T12:47:41;8.40;87.90
26821;DHT22;37186;51.394;5.454;2024-02-26T12:50:45;8.40;87.80
26821;DHT22;37186;51.394;5.454;2024-02-26T12:53:47;8.40;88.10
26821;DHT22;37186;51.394;5.454;2024-02-26T12:56:50;8.50;88.00
26821;DHT22;37186;51.394;5.454;2024-02-26T12:59:51;8.50;87.90
26821;DHT22;37186;51.394;5.454;2024-02-26T13:02:52;8.40;87.70
26821;DHT22;37186;51.394;5.454;2024-02-26T13:05:54;8.40;87.90
26821;DHT22;37186;51.394;5.454;2024-02-26T13:08:58;8.50;87.90
26821;DHT22;37186;51.394;5.454;2024-02-26T13:11:59;8.50;88.00
26821;DHT22;37186;51.394;5.454;2024-02-26T13:15:02;8.50;88.00
26821;DHT22;37186;51.394;5.454;2024-02-26T13:18:15;8.50;88.00
26821;DHT22;37186;51.394;5.454;2024-02-26T13:21:18;8.50;88.10
26821;DHT22;37186;51.394;5.454;2024-02-26T13:24:19;8.50;88.00
26821;DHT22;37186;51.394;5.454;2024-02-26T13:27:23;8.50;88.10
26821;DHT22;37186;51.394;5.454;2024-02-26T13:30:27;8.50;88.20
26821;DHT22;37186;51.394;5.454;2024-02-26T13:33:29;8.50;88.00
26821;DHT22;37186;51.394;5.454;2024-02-26T13:36:29;8.50;88.00
26821;DHT22;37186;51.394;5.454;2024-02-26T13:39:30;8.60;88.20
26821;DHT22;37186;51.394;5.454;2024-02-26T13:42:31;8.50;88.00
26821;DHT22;37186;51.394;5.454;2024-02-26T13:45:35;8.60;88.10
26821;DHT22;37186;51.394;5.454;2024-02-26T13:48:36;8.60;88.10
26821;DHT22;37186;51.394;5.454;2024-02-26T13:51:37;8.60;88.40
26821;DHT22;37186;51.394;5.454;2024-02-26T13:54:38;8.60;88.20
26821;DHT22;37186;51.394;5.454;2024-02-26T13:57:40;8.60;88.30
26821;DHT22;37186;51.394;5.454;2024-02-26T14:00:41;8.50;88.10
26821;DHT22;37186;51.394;5.454;2024-02-26T14:03:42;8.60;88.50
26821;DHT22;37186;51.394;5.454;2024-02-26T14:06:42;8.60;88.10
26821;DHT22;37186;51.394;5.454;2024-02-26T14:09:43;8.60;88.10
26821;DHT22;37186;51.394;5.454;2024-02-26T14:12:44;8.60;88.10
26821;DHT22;37186;51.394;5.454;2024-02-26T14:15:45;8.60;88.10
26821;DHT22;37186;51.394;5.454;2024-02-26T14:18:45;8.60;88.30
26821;DHT22;37186;51.394;5.454;2024-02-26T14:21:47;8.60;88.20
26821;DHT22;37186;51.394;5.454;2024-02-26T14:24:47;8.60;88.40
26821;DHT22;37186;51.394;5.454;2024-02-26T14:27:50;8.60;88.30
26821;DHT22;37186;51.394;5.454;2024-02-26T14:30:51;8.60;88.40
26821;DHT22;37186;51.394;5.454;2024-02-26T14:33:51;8.60;88.10
26821;DHT22;37186;51.394;5.454;2024-02-26T14:36:54;8.60;88.40
26821;DHT22;37186;51.394;5.454;2024-02-26T14:39:54;8.60;88.50
26821;DHT22;37186;51.394;5.454;2024-02-26T14:42:55;8.60;88.30
26821;DHT22;37186;51.394;5.454;2024-02-26T14:45:58;8.60;88.20
26821;DHT22;37186;51.394;5.454;2024-02-26T14:48:58;8.60;88.40
26821;DHT22;37186;51.394;5.454;2024-02-26T14:51:59;8.60;88.30
26821;DHT22;37186;51.394;5.454;2024-02-26T14:54:59;8.60;88.40
26821;DHT22;37186;51.394;5.454;2024-02-26T14:58:00;8.60;88.40
26821;DHT22;37186;51.394;5.454;2024-02-26T15:01:00;8.60;88.60
26821;DHT22;37186;51.394;5.454;2024-02-26T15:04:01;8.60;88.30
26821;DHT22;37186;51.394;5.454;2024-02-26T15:07:02;8.60;88.40
26821;DHT22;37186;51.394;5.454;2024-02-26T15:10:03;8.60;88.40
26821;DHT22;37186;51.394;5.454;2024-02-26T15:13:03;8.60;88.60
26821;DHT22;37186;51.394;5.454;2024-02-26T15:16:05;8.60;88.30
26821;DHT22;37186;51.394;5.454;2024-02-26T15:19:06;8.70;88.50
26821;DHT22;37186;51.394;5.454;2024-02-26T15:22:07;8.70;88.40
26821;DHT22;37186;51.394;5.454;2024-02-26T15:25:08;8.70;88.50
26821;DHT22;37186;51.394;5.454;2024-02-26T15:28:09;8.60;88.50
26821;DHT22;37186;51.394;5.454;2024-02-26T15:31:17;8.60;88.80
26821;DHT22;37186;51.394;5.454;2024-02-26T15:34:19;8.60;88.40
26821;DHT22;37186;51.394;5.454;2024-02-26T15:37:20;8.60;88.50
26821;DHT22;37186;51.394;5.454;2024-02-26T15:40:21;8.60;88.50
26821;DHT22;37186;51.394;5.454;2024-02-26T15:43:22;8.60;88.70
26821;DHT22;37186;51.394;5.454;2024-02-26T15:46:22;8.60;88.70
26821;DHT22;37186;51.394;5.454;2024-02-26T15:49:23;8.70;88.80
26821;DHT22;37186;51.394;5.454;2024-02-26T15:52:23;8.60;88.60
26821;DHT22;37186;51.394;5.454;2024-02-26T15:55:24;8.60;88.80
26821;DHT22;37186;51.394;5.454;2024-02-26T15:58:25;8.70;88.90
26821;DHT22;37186;51.394;5.454;2024-02-26T16:01:25;8.60;88.80
26821;DHT22;37186;51.394;5.454;2024-02-26T16:04:26;8.60;88.60
26821;DHT22;37186;51.394;5.454;2024-02-26T16:07:51;8.60;88.70
26821;DHT22;37186;51.394;5.454;2024-02-26T16:10:53;8.70;89.50
26821;DHT22;37186;51.394;5.454;2024-02-26T16:14:26;8.60;88.70
26821;DHT22;37186;51.394;5.454;2024-02-26T16:17:38;8.60;88.60
26821;DHT22;37186;51.394;5.454;2024-02-26T16:20:46;8.70;88.60
26821;DHT22;37186;51.394;5.454;2024-02-26T16:23:47;8.60;88.80
26821;DHT22;37186;51.394;5.454;2024-02-26T16:26:48;8.60;88.80
26821;DHT22;37186;51.394;5.454;2024-02-26T16:29:48;8.60;88.90
26821;DHT22;37186;51.394;5.454;2024-02-26T16:32:49;8.60;88.50
26821;DHT22;37186;51.394;5.454;2024-02-26T16:35:50;8.60;88.50
26821;DHT22;37186;51.394;5.454;2024-02-26T16:38:50;8.60;88.80
26821;DHT22;37186;51.394;5.454;2024-02-26T16:41:51;8.70;88.70
26821;DHT22;37186;51.394;5.454;2024-02-26T16:44:51;8.60;88.60
26821;DHT22;37186;51.394;5.454;2024-02-26T16:47:52;8.60;88.80
26821;DHT22;37186;51.394;5.454;2024-02-26T16:50:52;8.60;88.60
26821;DHT22;37186;51.394;5.454;2024-02-26T16:53:53;8.60;88.60
26821;DHT22;37186;51.394;5.454;2024-02-26T16:56:54;8.60;88.60
26821;DHT22;37186;51.394;5.454;2024-02-26T16:59:55;8.60;88.40
26821;DHT22;37186;51.394;5.454;2024-02-26T17:02:55;8.60;88.50
26821;DHT22;37186;51.394;5.454;2024-02-26T17:05:58;8.60;88.50
26821;DHT22;37186;51.394;5.454;2024-02-26T17:08:59;8.60;88.50
26821;DHT22;37186;51.394;5.454;2024-02-26T17:12:01;8.60;88.60
26821;DHT22;37186;51.394;5.454;2024-02-26T17:15:01;8.60;88.50
26821;DHT22;37186;51.394;5.454;2024-02-26T17:18:02;8.60;88.40
26821;DHT22;37186;51.394;5.454;2024-02-26T17:21:03;8.60;88.70
26821;DHT22;37186;51.394;5.454;2024-02-26T17:24:04;8.60;88.60
26821;DHT22;37186;51.394;5.454;2024-02-26T17:27:04;8.60;88.50
26821;DHT22;37186;51.394;5.454;2024-02-26T17:30:06;8.60;88.60
26821;DHT22;37186;51.394;5.454;2024-02-26T17:33:06;8.60;88.40
26821;DHT22;37186;51.394;5.454;2024-02-26T17:36:07;8.60;88.50
26821;DHT22;37186;51.394;5.454;2024-02-26T17:39:10;8.60;88.50
26821;DHT22;37186;51.394;5.454;2024-02-26T17:42:11;8.60;88.50
26821;DHT22;37186;51.394;5.454;2024-02-26T17:45:11;8.50;88.40
26821;DHT22;37186;51.394;5.454;2024-02-26T17:48:12;8.60;88.60
26821;DHT22;37186;51.394;5.454;2024-02-26T17:51:13;8.50;88.60
26821;DHT22;37186;51.394;5.454;2024-02-26T17:54:14;8.50;88.50
26821;DHT22;37186;51.394;5.454;2024-02-26T17:57:14;8.60;88.70
26821;DHT22;37186;51.394;5.454;2024-02-26T18:00:15;8.50;88.50
26821;DHT22;37186;51.394;5.454;2024-02-26T18:03:16;8.50;88.50
26821;DHT22;37186;51.394;5.454;2024-02-26T18:06:17;8.50;88.60
26821;DHT22;37186;51.394;5.454;2024-02-26T18:09:17;8.50;88.50
26821;DHT22;37186;51.394;5.454;2024-02-26T18:12:18;8.50;88.50
26821;DHT22;37186;51.394;5.454;2024-02-26T18:15:18;8.50;88.50
26821;DHT22;37186;51.394;5.454;2024-02-26T18:18:19;8.50;88.50
26821;DHT22;37186;51.394;5.454;2024-02-26T18:21:19;8.50;88.50
26821;DHT22;37186;51.394;5.454;2024-02-26T18:24:22;8.50;88.60
26821;DHT22;37186;51.394;5.454;2024-02-26T18:27:23;8.50;88.40
26821;DHT22;37186;51.394;5.454;2024-02-26T18:30:23;8.50;88.60
26821;DHT22;37186;51.394;5.454;2024-02-26T18:33:26;8.50;88.70
26821;DHT22;37186;51.394;5.454;2024-02-26T18:36:27;8.40;88.40
26821;DHT22;37186;51.394;5.454;2024-02-26T18:39:27;8.50;88.70
26821;DHT22;37186;51.394;5.454;2024-02-26T18:42:28;8.40;88.50
26821;DHT22;37186;51.394;5.454;2024-02-26T18:45:31;8.40;88.40
26821;DHT22;37186;51.394;5.454;2024-02-26T18:48:31;8.40;88.70
26821;DHT22;37186;51.394;5.454;2024-02-26T18:51:32;8.40;88.50
26821;DHT22;37186;51.394;5.454;2024-02-26T18:54:33;8.40;88.70
26821;DHT22;37186;51.394;5.454;2024-02-26T18:57:33;8.40;88.40
26821;DHT22;37186;51.394;5.454;2024-02-26T19:00:34;8.40;88.50
26821;DHT22;37186;51.394;5.454;2024-02-26T19:03:35;8.40;88.60
26821;DHT22;37186;51.394;5.454;2024-02-26T19:06:35;8.40;88.60
26821;DHT22;37186;51.394;5.454;2024-02-26T19:09:39;8.40;88.60
26821;DHT22;37186;51.394;5.454;2024-02-26T19:12:39;8.40;88.40
26821;DHT22;37186;51.394;5.454;2024-02-26T19:15:40;8.40;88.70
26821;DHT22;37186;51.394;5.454;2024-02-26T19:18:41;8.40;88.70
26821;DHT22;37186;51.394;5.454;2024-02-26T19:21:42;8.40;88.60
26821;DHT22;37186;51.394;5.454;2024-02-26T19:24:42;8.40;88.50